Airfield :
LOGIN :

Register | Disclaimer

   EN    FR    IT 

 










Legend :    VFR   Marginal VFR   IFR   Intensive IFR   Very Intensive IFR
Visi :
Ceiling :
>= 8 km
>= 3000ft
5 to 8 km
1000 to 3000 ft
1500m to 5 km
500 to 1000 ft
800 to 1500m
200 to 500 ft
< 800m
< 200 ft
Symbols :   Thunderstorms  Fog  Heavy snow  Heavy precipitations  Wind > 20 kt
SIGMETs :     Misc.  Thunderstorms  Icing  Turbulence  Mountain Waves  Volcanic Ashes







- Airport Elevation : 401 ft
- IATA code : LEQ
- Download approach charts


EGHC - Land's End

CURRENT METAR :
  • 231450Z 22010KT 0050 FG VV/// 14/14 Q1017

EXPIRED METARs :
  • 231420Z 22010KT 0050 FG VV/// 14/14 1017
  • 231350Z 23008KT 0050 FG VV/// 14/14 1017
  • 231320Z 25009KT 0050 FG VV/// 14/14 1017
  • 231250Z 24009KT 1000 FG OVC001 13/13 1017
  • 231220Z 25012KT 0050 FG VV/// 13/13 Q1017

TAF TAF EGHC
Valid from the 23 at 15:00 until the 23 at 18:00 UTC


231401Z 2315/2318 25009KT 0100 FG VV///
TEMPO 2315/2318 3000 RADZ BR BKN003
No reported NOTAMs for that airfield.



MET'MAP, your aeronautical weather chart ! - Copyright ORBIFLY December 2007 - Disclaimer

ORBIFLY MET'MAP TEAM :

Programming & Development : Alexandra Zaïnal
Concept & Development : Baudouin d'Aumeries
Co-Development & Prog : Marc-Olivier Méhu
Technical & hardware support : Manuel Goepfert

Contact : metmap@orbifly.com




SOURCES & CREDITS :

   NOAA